GMTA/AHU METAR and TAF weather

Enter ICAO airport designator
Station Type Date Time Source
GMTA METAR 2018/01/16 09:00 UTC NOAA

GMTA 160900Z 16004KT CAVOK 10/08 Q1031 NOSIG


Station Type Date Time Source
GMTA Decoded METAR 2018/01/16 09:00 UTC NOAA

Al Hoceima, Morocco (GMTA) 35-11N 003-51W 14M
Jan 16, 2018 - 04:00 AM EST / 2018.01.16 0900 UTC
Wind: from the SSE (160 degrees) at 5 MPH (4 KT):0
Visibility: greater than 7 mile(s):0
Temperature: 50 F (10 C)
Dew Point: 46 F (8 C)
Relative Humidity: 87%
Pressure (altimeter): 30.45 in. Hg (1031 hPa)
ob: GMTA 160900Z 16004KT CAVOK 10/08 Q1031 NOSIG
cycle: 9

Station Type Date Time Source
GMTA TAF 2018/01/16 06:18 UTC NOAA

TAF GMTA 160500Z 1606/1712 17007KT 9999 FEW016
BECMG 1609/1611 CAVOK


Example: see airport list